Time;durP1;ratioP1;P1;durP2;ratioP2;P2;SDS_P1;SDS_P2;PMS_P1;PMS_P2;Temp;Humidity;BMP_temperature;BMP_pressure;BME280_temperature;BME280_humidity;BME280_pressure;Samples;Min_cycle;Max_cycle;Signal;HPM_P1;HPM_P2
2022/07/13 00:01:33;;;;;;;2.40;2.20;;;22.50;60.80;;;;;;5013004;28;20169;-65
2022/07/13 00:03:58;;;;;;;2.30;2.20;;;22.50;60.80;;;;;;5011642;28;20208;-65
2022/07/13 00:06:24;;;;;;;2.63;2.20;;;22.50;60.70;;;;;;5013125;28;20223;-65
2022/07/13 00:08:49;;;;;;;2.10;1.95;;;22.50;60.90;;;;;;5015211;28;20594;-65
2022/07/13 00:11:15;;;;;;;2.30;2.20;;;22.50;60.80;;;;;;5016224;28;20527;-65
2022/07/13 00:13:41;;;;;;;2.17;2.08;;;22.50;60.80;;;;;;5016700;28;20176;-66
2022/07/13 00:16:06;;;;;;;2.63;2.38;;;22.50;60.90;;;;;;5016935;28;20173;-65
2022/07/13 00:18:32;;;;;;;2.17;2.08;;;22.50;60.80;;;;;;5016219;28;20184;-66
2022/07/13 00:20:57;;;;;;;2.47;2.30;;;22.50;61.00;;;;;;5016743;28;20176;-66
2022/07/13 00:23:23;;;;;;;2.20;2.10;;;22.50;61.00;;;;;;5016851;28;20243;-65
2022/07/13 00:25:49;;;;;;;2.20;2.10;;;22.50;60.90;;;;;;5015826;28;20267;-66
2022/07/13 00:28:15;;;;;;;3.00;2.40;;;22.50;60.90;;;;;;5016670;28;20291;-65
2022/07/13 00:30:41;;;;;;;2.40;2.20;;;22.50;61.00;;;;;;5016688;28;20180;-65
2022/07/13 00:33:07;;;;;;;3.03;2.35;;;22.50;61.00;;;;;;5015777;28;20172;-65
2022/07/13 00:35:32;;;;;;;2.45;2.33;;;22.50;61.00;;;;;;5016562;28;20549;-65
2022/07/13 00:37:58;;;;;;;2.30;2.20;;;22.50;61.00;;;;;;5016449;28;20264;-65
2022/07/13 00:40:23;;;;;;;2.50;2.40;;;22.50;61.10;;;;;;5016006;28;20177;-65
2022/07/13 00:42:49;;;;;;;2.50;2.40;;;22.50;61.00;;;;;;5016317;28;20172;-65
2022/07/13 00:45:14;;;;;;;2.30;2.20;;;22.50;61.00;;;;;;5015678;28;20872;-65
2022/07/13 00:47:41;;;;;;;2.33;2.22;;;22.50;61.10;;;;;;5015915;28;20184;-64
2022/07/13 00:50:07;;;;;;;2.40;2.30;;;22.50;61.00;;;;;;5016387;28;20176;-64
2022/07/13 00:52:34;;;;;;;2.70;2.50;;;22.50;61.10;;;;;;5015720;28;20199;-64
2022/07/13 00:55:00;;;;;;;2.20;2.10;;;22.50;61.10;;;;;;4998436;28;20658;-65
2022/07/13 00:57:26;;;;;;;2.28;2.17;;;22.50;61.20;;;;;;4998659;28;20177;-65
2022/07/13 00:59:51;;;;;;;2.22;2.10;;;22.50;61.20;;;;;;4997735;28;20173;-65
2022/07/13 01:02:17;;;;;;;2.40;2.30;;;22.50;61.10;;;;;;5015886;28;20199;-64
2022/07/13 01:04:42;;;;;;;2.85;2.47;;;22.50;61.20;;;;;;5015565;28;20232;-65
2022/07/13 01:07:08;;;;;;;2.50;2.30;;;22.50;61.10;;;;;;5015283;28;20176;-65
2022/07/13 01:09:33;;;;;;;2.50;2.40;;;22.50;61.20;;;;;;5015902;28;20232;-65
2022/07/13 01:11:59;;;;;;;2.45;2.25;;;22.50;61.10;;;;;;5015555;28;20183;-65
2022/07/13 01:14:24;;;;;;;2.72;2.03;;;22.50;61.30;;;;;;5015202;28;20172;-65
2022/07/13 01:16:50;;;;;;;2.50;2.38;;;22.50;61.20;;;;;;5015600;28;20168;-65
2022/07/13 01:19:16;;;;;;;2.28;2.17;;;22.50;61.20;;;;;;5015390;28;20192;-66
2022/07/13 01:21:44;;;;;;;2.60;2.40;;;22.40;61.10;;;;;;4997321;28;20721;-65
2022/07/13 01:24:10;;;;;;;2.50;2.40;;;22.50;61.20;;;;;;4998200;28;20216;-65
2022/07/13 01:26:36;;;;;;;2.53;2.05;;;22.40;61.10;;;;;;4998363;28;20181;-65
2022/07/13 01:29:02;;;;;;;2.70;2.60;;;22.40;61.10;;;;;;5014616;28;20562;-65
2022/07/13 01:31:34;;;;;;;2.83;2.63;;;22.50;61.10;;;;;;5015476;28;20260;-65
2022/07/13 01:34:00;;;;;;;2.40;2.22;;;22.40;61.00;;;;;;5015403;28;20263;-65
2022/07/13 01:36:26;;;;;;;2.22;2.13;;;22.40;61.10;;;;;;5014902;28;20259;-66
2022/07/13 01:38:51;;;;;;;2.50;2.30;;;22.50;61.20;;;;;;4997787;28;20177;-66
2022/07/13 01:41:17;;;;;;;2.50;2.30;;;22.40;61.20;;;;;;5015174;28;20609;-65
2022/07/13 01:43:42;;;;;;;2.60;2.50;;;22.50;61.20;;;;;;5014298;28;20294;-65
2022/07/13 01:46:10;;;;;;;2.45;2.35;;;22.50;61.20;;;;;;4981433;28;20172;-64
2022/07/13 01:48:35;;;;;;;2.50;2.40;;;22.40;61.20;;;;;;4997335;28;20173;-64
2022/07/13 01:51:01;;;;;;;2.95;2.20;;;22.40;61.20;;;;;;5015066;28;20184;-64
2022/07/13 01:53:26;;;;;;;3.03;2.28;;;22.40;61.20;;;;;;5015303;28;20175;-64
2022/07/13 01:55:52;;;;;;;2.85;2.40;;;22.40;61.10;;;;;;5014261;28;20213;-65
2022/07/13 01:58:18;;;;;;;2.92;2.72;;;22.40;61.20;;;;;;5014962;28;20176;-64
2022/07/13 02:00:43;;;;;;;2.13;2.03;;;22.40;61.20;;;;;;5014989;28;20173;-65
2022/07/13 02:03:09;;;;;;;2.13;2.00;;;22.40;61.20;;;;;;5014067;28;20184;-65
2022/07/13 02:05:35;;;;;;;3.08;2.88;;;22.40;61.30;;;;;;5014826;28;20227;-65
2022/07/13 02:08:01;;;;;;;2.53;2.42;;;22.50;61.30;;;;;;5014728;28;20187;-65
2022/07/13 02:10:36;;;;;;;2.47;2.38;;;22.40;61.20;;;;;;5014201;28;20187;-64
2022/07/13 02:13:07;;;;;;;2.60;2.40;;;22.40;61.30;;;;;;5014496;28;20275;-65
2022/07/13 02:15:32;;;;;;;2.70;2.50;;;22.40;61.20;;;;;;5014955;28;20173;-65
2022/07/13 02:17:58;;;;;;;2.40;2.30;;;22.40;61.30;;;;;;5013651;28;20176;-65
2022/07/13 02:20:23;;;;;;;2.72;2.53;;;22.40;61.30;;;;;;5014593;28;20188;-65
2022/07/13 02:22:49;;;;;;;2.67;2.47;;;22.40;61.40;;;;;;5014351;28;20288;-65
2022/07/13 02:25:14;;;;;;;2.47;2.28;;;22.40;61.30;;;;;;5014224;28;20253;-65
2022/07/13 02:27:40;;;;;;;2.38;2.20;;;22.40;61.30;;;;;;5014202;28;20251;-65
2022/07/13 02:30:06;;;;;;;2.58;2.47;;;22.40;61.30;;;;;;5014624;28;20547;-65
2022/07/13 02:32:32;;;;;;;2.35;2.20;;;22.40;61.30;;;;;;5012746;28;20231;-65
2022/07/13 02:34:57;;;;;;;2.33;2.22;;;22.40;61.30;;;;;;5013927;28;20659;-65
2022/07/13 02:37:23;;;;;;;2.70;2.50;;;22.40;61.30;;;;;;5014375;28;20267;-66
2022/07/13 02:39:51;;;;;;;2.65;2.45;;;22.40;61.30;;;;;;5013428;28;20176;-65
2022/07/13 02:42:17;;;;;;;2.80;2.60;;;22.40;61.30;;;;;;5014125;28;20275;-65
2022/07/13 02:44:42;;;;;;;2.42;2.33;;;22.40;61.40;;;;;;5013487;28;20690;-65
2022/07/13 02:47:08;;;;;;;2.55;2.40;;;22.40;61.30;;;;;;5014247;28;20180;-65
2022/07/13 02:49:33;;;;;;;2.58;2.45;;;22.40;61.30;;;;;;5014145;28;20585;-65
2022/07/13 02:51:59;;;;;;;2.30;2.20;;;22.40;61.30;;;;;;5013097;28;20172;-64
2022/07/13 02:54:24;;;;;;;2.60;2.40;;;22.40;61.30;;;;;;5014130;28;20180;-65
2022/07/13 02:56:50;;;;;;;2.42;2.33;;;22.40;61.30;;;;;;5013732;28;20204;-65
2022/07/13 02:59:15;;;;;;;2.60;2.50;;;22.40;61.40;;;;;;5013381;28;20259;-65
2022/07/13 03:01:41;;;;;;;2.72;2.53;;;22.40;61.40;;;;;;5013620;28;20603;-65
2022/07/13 03:04:06;;;;;;;2.50;2.40;;;22.40;61.40;;;;;;5013640;28;20216;-65
2022/07/13 03:06:32;;;;;;;2.63;2.42;;;22.40;61.40;;;;;;5013226;28;20191;-65
2022/07/13 03:08:57;;;;;;;2.83;2.63;;;22.40;61.40;;;;;;5013463;28;20176;-66
2022/07/13 03:11:23;;;;;;;2.97;2.78;;;22.40;61.40;;;;;;4996330;28;20227;-65
2022/07/13 03:13:48;;;;;;;2.50;2.40;;;22.40;61.80;;;;;;5012985;28;20568;-65
2022/07/13 03:16:14;;;;;;;2.63;2.47;;;22.40;61.50;;;;;;5013752;28;20251;-66
2022/07/13 03:18:39;;;;;;;2.75;2.55;;;22.40;61.50;;;;;;5013291;28;20651;-66
2022/07/13 03:21:08;;;;;;;2.40;2.30;;;22.40;61.50;;;;;;5012753;28;20623;-65
2022/07/13 03:23:34;;;;;;;2.35;2.25;;;22.40;61.40;;;;;;5013620;28;20216;-65
2022/07/13 03:26:00;;;;;;;2.50;2.40;;;22.40;61.40;;;;;;5013098;28;20225;-65
2022/07/13 03:28:26;;;;;;;3.22;2.92;;;22.40;61.40;;;;;;5012680;28;20184;-65
2022/07/13 03:30:51;;;;;;;2.70;2.50;;;22.40;61.40;;;;;;5013436;28;20273;-65
2022/07/13 03:33:17;;;;;;;2.00;1.90;;;22.40;61.40;;;;;;5013360;28;20187;-66
2022/07/13 03:35:42;;;;;;;2.50;2.40;;;22.40;61.50;;;;;;5012356;28;20544;-65
2022/07/13 03:38:08;;;;;;;2.50;2.38;;;22.40;61.40;;;;;;5013245;28;20175;-65
2022/07/13 03:40:33;;;;;;;3.25;2.60;;;22.40;61.40;;;;;;5013342;28;20253;-65
2022/07/13 03:42:59;;;;;;;2.70;2.50;;;22.40;61.50;;;;;;5012073;28;20590;-65
2022/07/13 03:45:24;;;;;;;2.78;2.65;;;22.30;61.40;;;;;;5013230;28;20722;-65
2022/07/13 03:47:50;;;;;;;2.72;2.53;;;22.40;61.50;;;;;;5013096;28;20172;-64
2022/07/13 03:50:15;;;;;;;2.45;2.35;;;22.40;61.60;;;;;;5012312;28;20206;-64
2022/07/13 03:52:41;;;;;;;2.63;2.47;;;22.30;61.50;;;;;;5012842;28;20176;-64
2022/07/13 03:55:08;;;;;;;2.53;2.42;;;22.30;61.30;;;;;;5012306;28;20176;-65
2022/07/13 03:57:34;;;;;;;2.60;2.42;;;22.40;61.40;;;;;;5012966;28;20639;-65
2022/07/13 03:59:59;;;;;;;2.20;2.10;;;22.40;62.30;;;;;;5012906;28;20267;-65
2022/07/13 04:02:25;;;;;;;2.67;2.45;;;22.40;61.40;;;;;;5012257;28;20180;-65
2022/07/13 04:04:51;;;;;;;3.38;3.08;;;22.40;61.50;;;;;;5012495;28;20282;-65
2022/07/13 04:07:17;;;;;;;2.78;2.58;;;22.40;61.40;;;;;;5012920;28;20197;-66
2022/07/13 04:09:43;;;;;;;2.95;2.72;;;22.40;61.40;;;;;;5012040;28;20176;-65
2022/07/13 04:12:08;;;;;;;2.53;2.40;;;22.40;61.50;;;;;;5013089;28;20207;-65
2022/07/13 04:14:34;;;;;;;2.60;2.40;;;22.40;61.40;;;;;;5013127;28;20219;-66
2022/07/13 04:16:59;;;;;;;2.45;2.25;;;22.40;61.40;;;;;;5011985;28;20176;-66
2022/07/13 04:19:25;;;;;;;2.42;2.33;;;22.40;61.30;;;;;;5013000;28;20582;-66
2022/07/13 04:21:51;;;;;;;2.88;2.67;;;22.40;61.40;;;;;;5012731;28;20577;-66
2022/07/13 04:24:16;;;;;;;2.28;2.17;;;22.40;61.40;;;;;;5011756;28;20212;-65
2022/07/13 04:26:42;;;;;;;2.40;2.30;;;22.40;61.30;;;;;;5012751;28;20184;-64
2022/07/13 04:29:07;;;;;;;2.65;2.45;;;22.40;61.40;;;;;;5012830;28;20200;-66
2022/07/13 04:31:33;;;;;;;3.15;2.95;;;22.40;61.40;;;;;;5012001;28;20623;-66
2022/07/13 04:33:58;;;;;;;2.83;2.65;;;22.40;61.30;;;;;;5012513;28;20177;-66
2022/07/13 04:36:24;;;;;;;2.38;2.28;;;22.40;61.30;;;;;;5012679;28;20180;-66
2022/07/13 04:38:49;;;;;;;2.40;2.30;;;22.40;61.40;;;;;;5011817;28;20183;-66
2022/07/13 04:41:15;;;;;;;2.30;2.20;;;22.40;61.30;;;;;;5012503;28;20180;-66
2022/07/13 04:43:45;;;;;;;2.40;2.20;;;22.40;61.30;;;;;;5012488;28;20208;-65
2022/07/13 04:46:11;;;;;;;3.00;2.80;;;22.40;61.30;;;;;;5011999;28;20183;-65
2022/07/13 04:48:37;;;;;;;2.63;2.42;;;22.40;61.30;;;;;;5012520;28;20659;-65
2022/07/13 04:51:02;;;;;;;2.42;2.33;;;22.40;61.30;;;;;;5012239;28;20184;-65
2022/07/13 04:53:28;;;;;;;2.60;2.40;;;22.40;61.30;;;;;;5011758;28;20180;-65
2022/07/13 04:55:53;;;;;;;2.88;2.63;;;22.40;61.20;;;;;;5014736;28;20172;-65
2022/07/13 04:58:19;;;;;;;2.90;2.70;;;22.40;61.30;;;;;;5015311;28;20168;-65
2022/07/13 05:00:44;;;;;;;2.50;2.40;;;22.40;61.20;;;;;;5015935;28;20647;-65
2022/07/13 05:03:10;;;;;;;2.45;2.22;;;22.40;61.30;;;;;;5015929;28;20259;-65
2022/07/13 05:05:35;;;;;;;2.40;2.30;;;22.40;61.20;;;;;;5015270;28;20282;-66
2022/07/13 05:08:01;;;;;;;2.78;2.55;;;22.40;61.20;;;;;;5015633;28;20173;-65
2022/07/13 05:10:27;;;;;;;2.50;2.40;;;22.50;61.30;;;;;;5016182;28;20546;-66
2022/07/13 05:12:52;;;;;;;2.55;2.40;;;22.50;61.30;;;;;;5015143;28;20183;-66
2022/07/13 05:15:18;;;;;;;2.25;2.05;;;22.40;61.20;;;;;;5015605;28;20632;-66
2022/07/13 05:17:44;;;;;;;2.42;2.25;;;22.40;61.30;;;;;;5015765;28;20208;-66
2022/07/13 05:20:10;;;;;;;2.80;2.60;;;22.50;61.30;;;;;;5014868;28;20267;-66
2022/07/13 05:22:35;;;;;;;2.20;2.00;;;22.50;61.30;;;;;;5015708;28;20227;-66
2022/07/13 05:25:01;;;;;;;2.45;2.35;;;22.40;61.20;;;;;;5015461;28;20216;-65
2022/07/13 05:27:26;;;;;;;2.83;2.50;;;22.50;61.40;;;;;;5015156;28;20231;-66
2022/07/13 05:29:52;;;;;;;2.70;2.50;;;22.50;61.40;;;;;;5015367;28;20205;-66
2022/07/13 05:32:17;;;;;;;2.40;2.30;;;22.50;61.40;;;;;;5015396;28;20643;-65
2022/07/13 05:34:43;;;;;;;2.47;2.38;;;22.50;61.30;;;;;;5014600;28;20183;-66
2022/07/13 05:37:09;;;;;;;2.40;2.30;;;22.50;61.40;;;;;;5015258;28;20183;-66
2022/07/13 05:39:34;;;;;;;2.58;2.38;;;22.50;61.30;;;;;;5015523;28;20184;-66
2022/07/13 05:42:00;;;;;;;2.42;2.30;;;22.50;61.30;;;;;;5014244;28;20214;-65
2022/07/13 05:44:25;;;;;;;2.28;2.17;;;22.50;61.30;;;;;;5015197;28;20266;-65
2022/07/13 05:46:51;;;;;;;2.75;2.55;;;22.50;61.30;;;;;;5015150;28;20176;-65
2022/07/13 05:49:16;;;;;;;2.40;2.20;;;22.50;61.70;;;;;;5014503;28;20254;-65
2022/07/13 05:51:42;;;;;;;2.45;2.33;;;22.50;61.30;;;;;;5014684;28;20254;-65
2022/07/13 05:54:07;;;;;;;2.33;2.20;;;22.50;61.30;;;;;;5014978;28;20184;-65
2022/07/13 05:56:33;;;;;;;2.65;2.45;;;22.50;61.30;;;;;;5014657;28;20647;-66
2022/07/13 05:58:59;;;;;;;2.55;2.35;;;22.50;61.30;;;;;;5014657;28;20269;-66
2022/07/13 06:01:25;;;;;;;2.47;2.28;;;22.50;61.30;;;;;;5015172;28;20180;-65
2022/07/13 06:03:50;;;;;;;2.55;2.35;;;22.50;61.20;;;;;;5013970;28;20648;-66
2022/07/13 06:06:16;;;;;;;2.35;2.25;;;22.50;61.30;;;;;;5014672;28;20231;-66
2022/07/13 06:08:42;;;;;;;2.10;2.00;;;22.50;61.30;;;;;;5013823;28;20234;-66
2022/07/13 06:11:07;;;;;;;2.20;2.10;;;22.50;61.20;;;;;;5014910;28;20171;-66
2022/07/13 06:13:33;;;;;;;2.50;2.22;;;22.50;61.20;;;;;;5014894;28;20196;-66
2022/07/13 06:15:59;;;;;;;2.55;2.35;;;22.60;61.30;;;;;;5013674;28;20607;-66
2022/07/13 06:18:25;;;;;;;2.60;2.40;;;22.60;61.20;;;;;;5014659;28;20260;-67
2022/07/13 06:20:51;;;;;;;2.70;2.50;;;22.50;61.10;;;;;;5014371;28;20188;-66
2022/07/13 06:23:18;;;;;;;2.33;2.13;;;22.60;61.20;;;;;;5013949;28;20203;-66
2022/07/13 06:25:45;;;;;;;2.20;2.10;;;22.60;61.20;;;;;;5014461;28;20251;-66
2022/07/13 06:28:10;;;;;;;2.60;2.40;;;22.60;61.20;;;;;;5014556;28;20181;-65
2022/07/13 06:30:36;;;;;;;2.65;2.45;;;22.60;61.60;;;;;;5013602;28;20549;-66
2022/07/13 06:33:02;;;;;;;2.83;2.60;;;22.60;61.70;;;;;;5014193;28;20184;-65
2022/07/13 06:35:28;;;;;;;2.67;2.47;;;22.60;61.50;;;;;;5014322;28;20672;-66
2022/07/13 06:37:53;;;;;;;3.03;2.70;;;22.60;61.50;;;;;;5013216;28;20706;-66
2022/07/13 06:40:19;;;;;;;2.58;2.38;;;22.60;61.50;;;;;;5014300;28;20267;-66
2022/07/13 06:42:44;;;;;;;2.95;2.60;;;22.60;61.50;;;;;;5014017;28;20267;-66
2022/07/13 06:45:10;;;;;;;4.47;2.92;;;22.60;61.60;;;;;;5013420;28;20216;-66
2022/07/13 06:47:35;;;;;;;3.55;2.42;;;22.70;61.70;;;;;;5014131;28;20682;-66
2022/07/13 06:50:01;;;;;;;6.18;2.55;;;22.70;61.70;;;;;;5013631;28;20173;-66
2022/07/13 06:52:27;;;;;;;2.67;2.45;;;22.70;61.70;;;;;;5013600;28;20172;-65
2022/07/13 06:54:52;;;;;;;2.97;2.60;;;22.80;61.80;;;;;;5014132;28;20180;-66
2022/07/13 06:57:18;;;;;;;2.92;2.47;;;22.80;61.90;;;;;;5014094;28;20574;-67
2022/07/13 06:59:43;;;;;;;3.13;2.47;;;22.70;61.80;;;;;;5013111;28;20172;-65
2022/07/13 07:02:09;;;;;;;2.78;2.53;;;22.80;61.90;;;;;;5013720;28;20176;-67
2022/07/13 07:04:35;;;;;;;2.63;2.42;;;22.80;61.70;;;;;;5013335;28;20232;-67
2022/07/13 07:07:01;;;;;;;2.90;2.35;;;22.80;61.60;;;;;;5012677;28;20177;-68
2022/07/13 07:09:26;;;;;;;4.63;2.72;;;22.80;61.60;;;;;;4996443;28;20260;-68
2022/07/13 07:11:52;;;;;;;3.35;2.45;;;22.80;61.60;;;;;;5013327;28;20606;-68
2022/07/13 07:14:17;;;;;;;2.78;2.50;;;22.80;61.60;;;;;;5012962;28;20706;-68
2022/07/13 07:16:43;;;;;;;2.60;2.40;;;22.80;61.60;;;;;;5013231;28;20176;-68
2022/07/13 07:19:09;;;;;;;3.35;2.78;;;22.80;61.60;;;;;;5012281;28;20207;-68
2022/07/13 07:21:35;;;;;;;3.35;2.83;;;22.80;61.50;;;;;;5013617;28;20180;-68
2022/07/13 07:24:00;;;;;;;3.45;2.53;;;22.80;61.30;;;;;;5012957;28;20224;-67
2022/07/13 07:26:26;;;;;;;3.65;2.70;;;22.90;61.30;;;;;;5012795;28;20188;-68
2022/07/13 07:28:52;;;;;;;2.75;2.50;;;22.90;61.20;;;;;;5013102;28;20177;-68
2022/07/13 07:31:17;;;;;;;3.78;2.65;;;23.10;61.10;;;;;;5013386;28;20172;-68
2022/07/13 07:33:43;;;;;;;3.00;2.70;;;23.00;61.00;;;;;;5012280;28;20180;-68
2022/07/13 07:36:08;;;;;;;4.35;2.80;;;23.10;60.90;;;;;;5013020;28;20227;-68
2022/07/13 07:38:34;;;;;;;4.57;2.38;;;23.10;60.80;;;;;;5013479;28;20168;-69
2022/07/13 07:41:01;;;;;;;4.07;2.63;;;23.10;60.90;;;;;;5012084;28;20202;-69
2022/07/13 07:43:26;;;;;;;3.05;2.78;;;23.10;61.00;;;;;;5013312;28;20258;-67
2022/07/13 07:45:52;;;;;;;2.80;2.60;;;23.10;61.00;;;;;;5012903;28;20205;-67
2022/07/13 07:48:17;;;;;;;3.08;2.70;;;23.20;61.00;;;;;;4994762;28;20180;-66
2022/07/13 07:50:43;;;;;;;3.08;2.58;;;23.20;60.80;;;;;;5012751;28;20176;-66
2022/07/13 07:53:08;;;;;;;3.28;2.70;;;23.20;60.80;;;;;;5013178;28;20176;-66
2022/07/13 07:55:34;;;;;;;3.55;2.55;;;23.30;60.80;;;;;;5012393;28;20181;-67
2022/07/13 07:57:59;;;;;;;4.22;2.80;;;23.30;60.80;;;;;;5012865;28;20199;-66
2022/07/13 08:00:25;;;;;;;2.78;2.58;;;23.30;61.70;;;;;;5012951;28;20613;-66
2022/07/13 08:02:50;;;;;;;3.75;2.85;;;23.30;60.80;;;;;;5011949;28;20271;-67
2022/07/13 08:05:16;;;;;;;3.33;2.80;;;23.30;60.80;;;;;;5012574;28;20250;-69
2022/07/13 08:07:42;;;;;;;3.60;2.35;;;23.40;60.80;;;;;;5012826;28;20191;-68
2022/07/13 08:10:09;;;;;;;3.28;2.78;;;23.40;60.90;;;;;;5012343;28;20208;-68
2022/07/13 08:12:34;;;;;;;2.72;2.53;;;23.40;60.90;;;;;;5012841;28;20177;-68
2022/07/13 08:15:00;;;;;;;3.38;2.85;;;23.40;60.80;;;;;;5012565;28;20234;-68
2022/07/13 08:17:25;;;;;;;2.97;2.78;;;23.40;60.90;;;;;;5012209;28;20514;-68
2022/07/13 08:19:51;;;;;;;4.70;2.63;;;23.40;60.70;;;;;;5012476;28;20176;-67
2022/07/13 08:22:16;;;;;;;3.38;2.50;;;23.40;60.70;;;;;;5012249;28;20180;-67
2022/07/13 08:24:42;;;;;;;3.58;2.55;;;23.40;60.90;;;;;;5012735;28;20212;-68
2022/07/13 08:27:08;;;;;;;2.50;2.30;;;23.40;60.90;;;;;;5012648;28;20702;-67
2022/07/13 08:29:34;;;;;;;3.38;2.83;;;23.40;60.90;;;;;;5012252;28;20192;-67
2022/07/13 08:32:00;;;;;;;3.50;2.72;;;23.40;60.80;;;;;;5016459;28;20271;-65
2022/07/13 08:39:54;;;;;;;5.63;2.78;;;23.50;60.80;;;;;;5016423;28;20180;-67
2022/07/13 08:42:19;;;;;;;4.07;2.90;;;23.50;60.60;;;;;;5016377;28;20545;-67
2022/07/13 08:44:45;;;;;;;5.20;2.67;;;23.60;60.50;;;;;;4997857;28;20204;-67
2022/07/13 08:47:11;;;;;;;4.15;2.80;;;23.60;60.50;;;;;;5016507;28;20173;-67
2022/07/13 08:49:36;;;;;;;4.18;2.53;;;23.60;60.50;;;;;;5016532;28;20184;-67
2022/07/13 08:52:02;;;;;;;2.53;2.33;;;23.60;60.60;;;;;;5015253;28;20259;-67
2022/07/13 08:54:29;;;;;;;3.10;2.47;;;23.60;60.60;;;;;;5016351;28;20215;-67
2022/07/13 08:56:55;;;;;;;4.25;2.40;;;23.70;60.60;;;;;;4998941;28;20516;-67
2022/07/13 08:59:21;;;;;;;2.63;2.35;;;23.70;60.50;;;;;;5015436;28;20188;-68
2022/07/13 09:01:48;;;;;;;2.80;2.60;;;23.70;60.40;;;;;;5015991;28;20540;-65
2022/07/13 09:04:14;;;;;;;2.83;2.50;;;23.70;60.40;;;;;;5015904;28;20224;-65
2022/07/13 09:06:39;;;;;;;4.53;2.70;;;23.70;60.40;;;;;;5015355;28;20206;-67
2022/07/13 09:09:06;;;;;;;3.35;2.22;;;23.80;60.40;;;;;;5015773;28;20669;-68
2022/07/13 09:11:31;;;;;;;4.38;2.60;;;23.70;60.40;;;;;;5015147;28;20172;-68
2022/07/13 09:13:57;;;;;;;2.83;2.50;;;23.70;60.50;;;;;;5015424;28;20642;-68
2022/07/13 09:16:24;;;;;;;2.60;2.40;;;23.70;61.20;;;;;;5015921;28;20654;-69
2022/07/13 09:18:52;;;;;;;2.40;2.20;;;23.80;60.30;;;;;;5015086;28;20180;-68
2022/07/13 09:21:21;;;;;;;5.88;2.83;;;23.80;60.30;;;;;;5015539;28;20528;-67
2022/07/13 09:24:02;;;;;;;4.15;2.47;;;23.80;60.30;;;;;;5015455;28;20218;-68
2022/07/13 09:26:46;;;;;;;2.90;2.40;;;23.90;60.30;;;;;;5014873;28;20187;-67
2022/07/13 09:29:11;;;;;;;3.05;2.15;;;23.80;60.30;;;;;;5015705;28;20173;-67
2022/07/13 09:31:53;;;;;;;3.28;2.72;;;23.90;60.30;;;;;;5015773;28;20595;-67
2022/07/13 09:34:19;;;;;;;2.97;2.67;;;23.90;60.30;;;;;;5014656;28;20227;-68
2022/07/13 09:36:45;;;;;;;2.78;2.58;;;24.00;60.30;;;;;;5015208;28;20248;-66
2022/07/13 09:39:10;;;;;;;2.72;2.50;;;23.90;60.20;;;;;;5015482;28;20200;-67
2022/07/13 09:41:36;;;;;;;3.88;2.60;;;23.90;60.30;;;;;;5014298;28;20264;-66
2022/07/13 09:46:59;;;;;;;2.85;2.65;;;24.00;60.20;;;;;;5014434;28;20222;-64
2022/07/13 09:49:37;;;;;;;3.55;2.50;;;24.00;60.10;;;;;;5015294;28;20636;-65
2022/07/13 09:52:04;;;;;;;2.53;2.33;;;24.00;60.10;;;;;;5015345;28;20183;-66
2022/07/13 09:54:30;;;;;;;3.05;2.72;;;24.10;60.10;;;;;;5014606;28;20176;-67
2022/07/13 09:57:01;;;;;;;3.53;2.60;;;24.10;60.00;;;;;;5014978;28;20199;-66
2022/07/13 09:59:28;;;;;;;3.00;2.70;;;24.10;60.10;;;;;;5014906;28;20180;-67
2022/07/13 10:01:54;;;;;;;2.60;2.28;;;24.10;60.00;;;;;;5014578;28;20208;-66
2022/07/13 10:04:23;;;;;;;2.58;2.38;;;24.20;60.10;;;;;;5014703;28;20271;-66
2022/07/13 10:06:52;;;;;;;2.58;2.30;;;24.10;60.10;;;;;;4997846;28;20176;-66
2022/07/13 10:09:20;;;;;;;4.55;2.35;;;24.20;60.20;;;;;;4996626;28;20242;-66
2022/07/13 10:11:46;;;;;;;2.70;2.50;;;24.20;60.10;;;;;;4997629;28;20180;-67
2022/07/13 10:14:12;;;;;;;2.50;2.30;;;24.20;60.10;;;;;;5014516;28;20168;-67
2022/07/13 10:16:37;;;;;;;2.67;2.47;;;24.20;60.10;;;;;;4996453;28;20212;-67
2022/07/13 10:19:04;;;;;;;2.80;2.58;;;24.20;60.00;;;;;;4997354;28;20511;-67
2022/07/13 10:21:44;;;;;;;3.58;2.50;;;24.20;59.90;;;;;;4997425;28;20181;-68
2022/07/13 10:24:17;;;;;;;4.63;2.90;;;24.20;59.90;;;;;;5013866;28;20665;-68
2022/07/13 10:26:42;;;;;;;4.00;2.45;;;24.20;59.90;;;;;;5014216;28;20657;-67
2022/07/13 10:29:12;;;;;;;3.33;2.40;;;24.20;59.80;;;;;;4996270;28;20173;-67
2022/07/13 10:31:39;;;;;;;2.65;2.45;;;24.30;59.70;;;;;;5014323;28;20180;-67
2022/07/13 10:34:06;;;;;;;4.00;2.78;;;24.30;59.70;;;;;;5014199;28;20627;-67
2022/07/13 10:36:55;;;;;;;2.88;2.25;;;24.30;59.80;;;;;;5013861;28;20180;-67
2022/07/13 10:39:22;;;;;;;4.88;2.92;;;24.30;59.70;;;;;;5014553;28;20187;-67
2022/07/13 10:42:19;;;;;;;2.38;2.22;;;24.40;59.70;;;;;;5014283;28;20223;-67
2022/07/13 10:44:45;;;;;;;3.00;2.50;;;24.40;59.90;;;;;;4959415;28;20581;-66
2022/07/13 10:47:12;;;;;;;4.00;3.15;;;24.30;59.70;;;;;;5014045;28;20252;-65
2022/07/13 10:49:44;;;;;;;5.82;2.58;;;24.30;59.70;;;;;;5026198;28;20176;-67
2022/07/13 10:52:19;;;;;;;3.88;2.78;;;24.30;59.90;;;;;;5032607;28;20180;-67
2022/07/13 10:55:03;;;;;;;3.38;2.80;;;24.40;60.20;;;;;;5033572;28;20197;-67
2022/07/13 10:57:32;;;;;;;4.63;2.90;;;24.40;60.20;;;;;;5026784;28;20176;-67
2022/07/13 11:00:10;;;;;;;3.92;2.30;;;24.30;60.40;;;;;;5013604;28;20713;-67
2022/07/13 11:02:47;;;;;;;3.05;2.42;;;24.40;60.60;;;;;;5013926;28;20219;-67
2022/07/13 11:05:14;;;;;;;3.55;2.60;;;24.50;60.70;;;;;;5012798;28;20242;-67
2022/07/13 11:07:51;;;;;;;3.38;2.78;;;24.50;60.60;;;;;;5013629;28;20207;-67
2022/07/13 11:10:30;;;;;;;3.08;2.72;;;24.50;60.60;;;;;;5013789;28;20176;-67
2022/07/13 11:13:08;;;;;;;3.00;2.53;;;24.50;60.70;;;;;;5012932;28;20169;-67
2022/07/13 11:15:50;;;;;;;4.00;2.95;;;24.50;60.70;;;;;;5013785;28;20207;-67
2022/07/13 11:18:21;;;;;;;5.18;3.17;;;24.50;60.70;;;;;;5012882;28;20192;-68
2022/07/13 11:21:15;;;;;;;4.00;2.60;;;24.50;60.90;;;;;;5013329;28;20183;-67
2022/07/13 11:26:46;;;;;;;3.63;2.83;;;24.50;61.10;;;;;;5012781;28;20184;-69
2022/07/13 11:29:30;;;;;;;5.53;3.42;;;24.50;60.80;;;;;;5013352;28;20173;-69
2022/07/13 11:32:00;;;;;;;4.43;2.60;;;24.50;60.70;;;;;;5013229;28;20180;-69
2022/07/13 11:34:26;;;;;;;4.55;2.83;;;24.50;60.50;;;;;;5012809;28;20266;-70
2022/07/13 11:36:52;;;;;;;3.35;2.80;;;24.50;60.40;;;;;;5013093;28;20183;-71
2022/07/13 11:39:25;;;;;;;3.10;2.83;;;24.50;60.30;;;;;;4995033;28;20686;-70
2022/07/13 11:41:53;;;;;;;5.25;2.75;;;24.50;60.30;;;;;;5013045;28;20195;-69
2022/07/13 11:44:29;;;;;;;3.58;3.28;;;24.40;60.50;;;;;;5013216;28;20211;-69
2022/07/13 11:46:56;;;;;;;3.08;2.80;;;24.30;60.40;;;;;;5012240;28;20615;-68
2022/07/13 11:49:22;;;;;;;4.25;2.70;;;24.40;60.40;;;;;;5013038;28;20639;-69
2022/07/13 11:51:48;;;;;;;2.95;2.65;;;24.50;60.30;;;;;;5013037;28;20189;-68
2022/07/13 11:54:23;;;;;;;3.35;3.05;;;24.40;60.20;;;;;;5012306;28;20601;-69
2022/07/13 11:56:49;;;;;;;3.42;2.70;;;24.40;60.20;;;;;;5013148;28;20179;-70
2022/07/13 11:59:16;;;;;;;3.85;2.70;;;24.30;60.10;;;;;;5012918;28;20523;-69
2022/07/13 12:01:50;;;;;;;3.70;3.00;;;24.30;60.30;;;;;;4994399;28;20604;-69
2022/07/13 12:04:23;;;;;;;3.55;3.10;;;24.20;60.40;;;;;;5012457;28;20212;-69
2022/07/13 12:06:48;;;;;;;2.60;2.40;;;24.20;60.50;;;;;;5012645;28;20255;-69
2022/07/13 12:09:17;;;;;;;3.08;2.60;;;24.20;60.50;;;;;;5012103;28;20267;-69
2022/07/13 12:11:43;;;;;;;2.78;2.58;;;24.10;60.40;;;;;;5012857;28;20184;-69
2022/07/13 12:14:08;;;;;;;7.18;2.47;;;24.10;61.20;;;;;;5012888;28;20180;-70
2022/07/13 12:16:34;;;;;;;3.22;2.70;;;24.10;60.20;;;;;;5012294;28;20175;-70
2022/07/13 12:19:06;;;;;;;2.85;2.65;;;24.20;60.10;;;;;;5012611;28;20180;-70
2022/07/13 12:21:32;;;;;;;3.20;2.90;;;24.30;59.80;;;;;;5012113;28;20176;-71
2022/07/13 12:24:00;;;;;;;2.63;2.17;;;24.30;59.40;;;;;;5012602;28;20669;-70
2022/07/13 12:26:26;;;;;;;2.60;2.40;;;24.30;59.40;;;;;;5012899;28;20181;-70
2022/07/13 12:28:52;;;;;;;2.60;2.40;;;24.40;59.30;;;;;;5012016;28;20711;-70
2022/07/13 12:31:20;;;;;;;2.60;2.40;;;24.50;59.10;;;;;;5012612;28;20168;-69
2022/07/13 12:33:46;;;;;;;2.53;2.33;;;24.50;59.00;;;;;;5012483;28;20179;-70
2022/07/13 12:36:12;;;;;;;2.15;1.98;;;24.50;58.80;;;;;;4994334;28;20184;-70
2022/07/13 12:38:57;;;;;;;2.65;2.17;;;24.60;58.80;;;;;;5012484;28;20643;-70
2022/07/13 12:41:28;;;;;;;2.38;2.10;;;24.50;58.70;;;;;;5012737;28;20184;-70
2022/07/13 12:43:57;;;;;;;2.10;2.00;;;24.50;58.90;;;;;;5011739;28;20279;-69
2022/07/13 12:46:23;;;;;;;2.50;2.33;;;24.50;58.80;;;;;;5012465;28;20590;-69
2022/07/13 12:48:58;;;;;;;2.45;2.25;;;24.50;58.70;;;;;;5012310;28;20172;-68
2022/07/13 12:51:23;;;;;;;4.30;2.80;;;24.50;58.60;;;;;;4994603;28;20183;-68
2022/07/13 12:53:59;;;;;;;2.35;2.25;;;24.50;58.70;;;;;;5012414;28;20176;-69
2022/07/13 12:56:26;;;;;;;2.85;2.30;;;24.50;58.60;;;;;;5012659;28;20220;-69
2022/07/13 12:58:56;;;;;;;2.50;2.30;;;24.60;58.50;;;;;;5011464;28;20215;-69